Time;durP1;ratioP1;P1;durP2;ratioP2;P2;SDS_P1;SDS_P2;PMS_P1;PMS_P2;Temp;Humidity;BMP_temperature;BMP_pressure;BME280_temperature;BME280_humidity;BME280_pressure;Samples;Min_cycle;Max_cycle;Signal;HPM_P1;HPM_P2
2021/11/21 00:01:08;;;;;;;28.05;15.68;;;5.40;99.90;;;;;;4957627;28;20242;-78
2021/11/21 00:03:35;;;;;;;30.02;14.65;;;5.40;99.90;;;;;;4974095;28;20198;-78
2021/11/21 00:06:03;;;;;;;28.17;14.98;;;5.40;99.90;;;;;;4976117;28;20299;-79
2021/11/21 00:08:30;;;;;;;26.73;14.02;;;5.40;99.90;;;;;;4977222;28;20278;-79
2021/11/21 00:10:57;;;;;;;28.73;15.35;;;5.40;99.90;;;;;;4972702;28;20672;-79
2021/11/21 00:13:24;;;;;;;27.95;14.25;;;5.40;99.90;;;;;;4975605;28;20228;-79
2021/11/21 00:15:52;;;;;;;31.33;15.43;;;5.40;99.90;;;;;;4976465;28;20223;-79
2021/11/21 00:18:19;;;;;;;28.02;16.00;;;5.40;99.90;;;;;;4976013;28;20212;-78
2021/11/21 00:20:46;;;;;;;26.20;15.25;;;5.40;99.90;;;;;;4975675;28;20581;-79
2021/11/21 00:23:13;;;;;;;29.75;15.90;;;5.50;99.90;;;;;;4974167;28;20646;-79
2021/11/21 00:25:40;;;;;;;29.83;15.95;;;5.50;99.90;;;;;;4974945;28;20228;-80
2021/11/21 00:28:07;;;;;;;33.90;15.80;;;5.60;99.90;;;;;;4982333;28;20205;-79
2021/11/21 00:30:35;;;;;;;29.55;15.77;;;5.60;99.90;;;;;;4994867;28;20236;-78
2021/11/21 00:33:03;;;;;;;31.20;16.10;;;5.60;99.90;;;;;;4985898;28;20236;-80
2021/11/21 00:35:30;;;;;;;31.30;16.70;;;5.50;99.90;;;;;;4983026;28;20209;-78
2021/11/21 00:37:58;;;;;;;34.67;16.90;;;5.50;99.90;;;;;;4983961;28;20207;-79
2021/11/21 00:40:26;;;;;;;29.13;17.98;;;5.50;99.90;;;;;;4978852;28;20225;-78
2021/11/21 00:42:57;;;;;;;31.08;16.42;;;5.50;99.90;;;;;;4975226;28;20194;-80
2021/11/21 00:45:24;;;;;;;36.50;19.13;;;5.50;99.90;;;;;;4976141;28;20277;-78
2021/11/21 00:47:51;;;;;;;32.30;18.38;;;5.40;99.90;;;;;;4975995;28;20254;-79
2021/11/21 00:50:24;;;;;;;30.55;17.85;;;5.40;99.90;;;;;;4976118;28;20225;-78
2021/11/21 00:52:57;;;;;;;35.08;18.38;;;5.40;99.90;;;;;;4938469;29;20213;-78
2021/11/21 00:55:33;;;;;;;31.27;18.60;;;5.50;99.90;;;;;;4948826;28;20214;-79
2021/11/21 00:58:00;;;;;;;29.65;17.55;;;5.50;99.90;;;;;;4941012;29;20682;-79
2021/11/21 01:00:28;;;;;;;30.50;19.17;;;5.50;99.90;;;;;;4953350;28;20221;-79
2021/11/21 01:02:55;;;;;;;27.25;17.02;;;5.60;99.70;;;;;;4994326;28;20212;-79
2021/11/21 01:05:23;;;;;;;27.20;18.33;;;5.50;99.10;;;;;;4988060;28;20197;-80
2021/11/21 01:07:50;;;;;;;26.23;16.55;;;5.50;98.90;;;;;;4957894;28;20316;-79
2021/11/21 01:10:19;;;;;;;29.25;17.50;;;5.50;98.40;;;;;;4959477;28;20244;-80
2021/11/21 01:12:46;;;;;;;28.80;17.88;;;5.50;98.00;;;;;;4975271;28;20236;-81
2021/11/21 01:15:19;;;;;;;31.38;17.33;;;5.50;97.80;;;;;;4976934;28;20205;-80
2021/11/21 01:17:46;;;;;;;33.40;19.45;;;5.50;97.50;;;;;;4975882;28;20212;-79
2021/11/21 01:20:13;;;;;;;27.05;17.52;;;5.50;97.60;;;;;;4976113;28;20228;-80
2021/11/21 01:22:41;;;;;;;31.90;18.52;;;5.50;97.50;;;;;;4976142;28;20216;-80
2021/11/21 01:25:10;;;;;;;29.42;18.38;;;5.50;97.40;;;;;;4976140;28;20212;-80
2021/11/21 01:27:38;;;;;;;25.73;16.80;;;5.50;97.10;;;;;;4958427;28;20277;-79
2021/11/21 01:30:08;;;;;;;29.52;18.25;;;5.40;97.10;;;;;;4956830;28;20241;-79
2021/11/21 01:32:35;;;;;;;28.05;17.33;;;5.40;97.10;;;;;;4973596;28;20221;-79
2021/11/21 01:35:02;;;;;;;28.30;17.45;;;5.40;97.10;;;;;;4975858;28;20227;-79
2021/11/21 01:37:29;;;;;;;27.38;17.17;;;5.40;97.10;;;;;;4959233;28;20205;-79
2021/11/21 01:39:57;;;;;;;28.23;18.27;;;5.40;96.40;;;;;;4955897;28;20265;-80
2021/11/21 01:42:24;;;;;;;28.20;17.08;;;5.30;95.70;;;;;;4956171;28;20228;-79
2021/11/21 01:44:54;;;;;;;28.60;17.00;;;5.40;95.80;;;;;;4955844;28;20674;-80
2021/11/21 01:47:20;;;;;;;29.92;18.50;;;5.30;95.30;;;;;;4956769;28;20202;-80
2021/11/21 01:49:47;;;;;;;26.67;17.67;;;5.30;95.30;;;;;;4956203;28;20740;-79
2021/11/21 01:52:14;;;;;;;28.75;17.75;;;5.30;95.30;;;;;;4957263;28;20224;-80
2021/11/21 01:54:41;;;;;;;30.27;19.55;;;5.30;95.40;;;;;;4956482;28;20221;-79
2021/11/21 01:57:09;;;;;;;28.52;18.63;;;5.40;95.40;;;;;;4956641;28;20688;-79
2021/11/21 01:59:36;;;;;;;27.60;17.27;;;5.50;95.40;;;;;;4959810;28;20648;-79
2021/11/21 02:02:03;;;;;;;30.08;18.15;;;5.40;94.70;;;;;;4976541;28;20264;-78
2021/11/21 02:04:30;;;;;;;30.60;18.00;;;5.40;94.50;;;;;;4986951;28;20217;-79
2021/11/21 02:06:57;;;;;;;29.00;18.27;;;5.40;94.50;;;;;;4975522;28;20211;-80
2021/11/21 02:09:24;;;;;;;29.25;17.85;;;5.40;94.30;;;;;;4971014;28;20233;-79
2021/11/21 02:11:51;;;;;;;27.10;17.90;;;5.40;94.20;;;;;;4937624;29;20234;-79
2021/11/21 02:14:19;;;;;;;29.80;18.63;;;5.40;94.00;;;;;;4939222;29;20230;-79
2021/11/21 02:16:47;;;;;;;27.10;17.67;;;5.50;94.20;;;;;;4976378;28;20220;-78
2021/11/21 02:19:17;;;;;;;27.55;17.27;;;5.40;94.20;;;;;;4983431;28;20721;-78
2021/11/21 02:21:45;;;;;;;26.92;17.50;;;5.40;94.00;;;;;;4983427;28;20209;-80
2021/11/21 02:24:12;;;;;;;28.70;17.77;;;5.40;94.00;;;;;;4972928;28;20214;-79
2021/11/21 02:26:39;;;;;;;30.65;19.30;;;5.40;93.70;;;;;;4970359;28;20229;-80
2021/11/21 02:29:05;;;;;;;29.55;18.45;;;5.40;94.10;;;;;;4986299;28;20235;-78
2021/11/21 02:31:32;;;;;;;27.30;19.38;;;5.40;94.70;;;;;;4987343;28;20270;-78
2021/11/21 02:33:59;;;;;;;30.15;17.85;;;5.30;94.70;;;;;;4990310;28;20232;-79
2021/11/21 02:36:26;;;;;;;28.77;18.35;;;5.30;95.20;;;;;;4977636;28;20220;-79
2021/11/21 02:38:54;;;;;;;32.10;20.05;;;5.30;95.10;;;;;;4969471;28;20291;-79
2021/11/21 02:41:21;;;;;;;29.90;19.23;;;5.20;95.30;;;;;;4973295;28;20253;-79
2021/11/21 02:43:48;;;;;;;32.95;19.30;;;5.10;95.50;;;;;;4984218;28;20198;-79
2021/11/21 02:46:16;;;;;;;28.65;18.15;;;5.10;96.50;;;;;;4995188;28;20213;-76
2021/11/21 02:48:44;;;;;;;33.20;20.40;;;5.10;97.00;;;;;;4993217;28;20221;-81
2021/11/21 02:51:13;;;;;;;29.70;18.40;;;5.10;96.90;;;;;;4990135;28;20296;-79
2021/11/21 02:53:41;;;;;;;30.70;18.13;;;5.10;96.80;;;;;;4977993;28;20569;-79
2021/11/21 02:56:11;;;;;;;26.92;17.27;;;5.10;96.60;;;;;;4978581;28;20680;-79
2021/11/21 02:58:39;;;;;;;27.13;18.02;;;5.20;96.60;;;;;;4974856;28;20228;-78
2021/11/21 03:01:08;;;;;;;26.35;17.52;;;5.20;96.20;;;;;;4958414;28;20210;-79
2021/11/21 03:03:36;;;;;;;29.05;17.48;;;5.20;95.30;;;;;;4958802;28;20209;-80
2021/11/21 03:06:03;;;;;;;27.00;16.08;;;5.20;95.20;;;;;;4958892;28;20216;-79
2021/11/21 03:08:30;;;;;;;26.42;17.83;;;5.20;94.80;;;;;;4959669;28;20213;-79
2021/11/21 03:10:57;;;;;;;27.88;17.30;;;5.20;94.70;;;;;;4977815;28;20692;-79
2021/11/21 03:13:25;;;;;;;26.80;16.88;;;5.20;94.50;;;;;;4977432;28;20316;-79
2021/11/21 03:15:52;;;;;;;23.27;15.30;;;5.20;94.30;;;;;;4958993;28;20214;-80
2021/11/21 03:18:19;;;;;;;27.77;17.33;;;5.20;94.10;;;;;;4959202;28;20685;-79
2021/11/21 03:20:46;;;;;;;22.95;15.68;;;5.20;93.90;;;;;;4977631;28;20260;-79
2021/11/21 03:23:13;;;;;;;29.42;16.83;;;5.20;93.60;;;;;;4978627;28;20212;-79
2021/11/21 03:25:40;;;;;;;26.02;16.92;;;5.30;93.50;;;;;;4983303;28;20205;-78
2021/11/21 03:28:07;;;;;;;27.77;16.98;;;5.20;93.30;;;;;;4978987;28;20202;-79
2021/11/21 03:30:35;;;;;;;27.27;17.10;;;5.20;92.90;;;;;;4967706;28;20225;-81
2021/11/21 03:33:02;;;;;;;24.25;16.73;;;5.20;92.80;;;;;;4982174;28;20202;-79
2021/11/21 03:35:29;;;;;;;28.20;18.55;;;5.10;92.50;;;;;;4985059;28;20290;-79
2021/11/21 03:37:56;;;;;;;29.50;17.92;;;5.10;92.50;;;;;;4977623;28;20206;-79
2021/11/21 03:40:22;;;;;;;26.95;17.30;;;5.10;92.90;;;;;;4992568;28;20231;-81
2021/11/21 03:42:49;;;;;;;24.17;17.13;;;5.00;93.30;;;;;;4983777;28;20209;-79
2021/11/21 03:45:17;;;;;;;29.08;17.35;;;5.10;93.70;;;;;;4976816;28;20209;-79
2021/11/21 03:47:46;;;;;;;27.27;18.20;;;5.10;93.50;;;;;;4959374;28;20212;-79
2021/11/21 03:50:14;;;;;;;28.27;16.83;;;5.20;93.50;;;;;;4958031;28;20602;-80
2021/11/21 03:52:41;;;;;;;26.95;16.25;;;5.20;93.30;;;;;;4977109;28;20676;-79
2021/11/21 03:55:09;;;;;;;24.85;16.90;;;5.20;93.40;;;;;;4977648;28;20671;-79
2021/11/21 03:57:36;;;;;;;27.50;16.13;;;5.30;93.40;;;;;;4977551;28;20216;-79
2021/11/21 04:00:05;;;;;;;21.60;14.68;;;5.30;92.50;;;;;;4976771;28;20244;-79
2021/11/21 04:02:32;;;;;;;24.08;16.02;;;5.30;92.00;;;;;;4977951;28;20749;-79
2021/11/21 04:05:00;;;;;;;27.00;16.95;;;5.30;92.00;;;;;;4978579;28;20563;-79
2021/11/21 04:07:28;;;;;;;31.33;16.08;;;5.30;91.70;;;;;;4989090;28;20235;-79
2021/11/21 04:09:54;;;;;;;26.15;17.33;;;5.30;91.70;;;;;;4993341;28;20278;-79
2021/11/21 04:12:21;;;;;;;22.17;14.48;;;5.30;91.70;;;;;;4972271;28;20213;-81
2021/11/21 04:14:48;;;;;;;26.20;15.25;;;5.30;91.70;;;;;;4980516;28;20225;-80
2021/11/21 04:17:15;;;;;;;24.45;16.05;;;5.30;91.70;;;;;;4974206;28;20241;-79
2021/11/21 04:19:42;;;;;;;28.67;16.70;;;5.20;91.70;;;;;;4962531;28;20603;-80
2021/11/21 04:22:10;;;;;;;24.80;14.68;;;5.30;91.90;;;;;;4967842;28;20201;-80
2021/11/21 04:24:37;;;;;;;23.73;15.65;;;5.30;91.70;;;;;;4972074;28;20216;-79
2021/11/21 04:27:05;;;;;;;22.60;15.05;;;5.30;91.70;;;;;;4973196;28;20205;-79
2021/11/21 04:29:33;;;;;;;22.80;14.63;;;5.20;91.70;;;;;;4971251;28;20241;-78
2021/11/21 04:32:00;;;;;;;21.20;13.52;;;5.10;91.60;;;;;;4972402;28;20197;-79
2021/11/21 04:34:27;;;;;;;25.75;16.58;;;5.10;91.60;;;;;;4987243;28;20221;-78
2021/11/21 04:36:55;;;;;;;24.75;15.43;;;5.00;91.80;;;;;;4984413;28;20205;-78
2021/11/21 04:39:23;;;;;;;21.90;13.95;;;5.00;92.30;;;;;;4967586;28;20240;-79
2021/11/21 04:41:50;;;;;;;25.23;14.55;;;4.90;93.00;;;;;;4966665;28;20626;-79
2021/11/21 04:44:19;;;;;;;28.77;16.02;;;4.90;93.40;;;;;;4976354;28;20574;-79
2021/11/21 04:46:46;;;;;;;27.08;16.13;;;4.90;93.60;;;;;;4974875;28;20205;-79
2021/11/21 04:49:13;;;;;;;29.10;16.38;;;4.80;94.20;;;;;;4975588;28;20228;-79
2021/11/21 04:51:41;;;;;;;27.70;15.68;;;4.80;94.50;;;;;;4975545;28;20217;-80
2021/11/21 04:54:12;;;;;;;31.35;16.33;;;4.80;95.00;;;;;;4937093;29;20297;-79
2021/11/21 04:56:41;;;;;;;29.00;16.25;;;4.80;95.10;;;;;;4938001;29;20583;-79
2021/11/21 04:59:07;;;;;;;24.88;14.80;;;4.70;95.10;;;;;;4937255;29;20246;-80
2021/11/21 05:01:34;;;;;;;28.33;15.27;;;4.70;95.70;;;;;;4955201;28;20213;-79
2021/11/21 05:04:01;;;;;;;26.98;14.73;;;4.70;95.80;;;;;;4967075;28;20200;-79
2021/11/21 05:06:28;;;;;;;26.77;14.63;;;4.80;96.30;;;;;;4975900;28;20273;-79
2021/11/21 05:08:58;;;;;;;23.52;14.32;;;4.80;96.20;;;;;;4987060;23;20221;-81
2021/11/21 05:11:25;;;;;;;25.42;14.27;;;4.80;96.00;;;;;;4998147;28;20321;-80
2021/11/21 05:13:55;;;;;;;23.27;13.32;;;4.90;96.10;;;;;;4997283;28;20238;-80
2021/11/21 05:16:22;;;;;;;21.95;12.05;;;4.90;95.80;;;;;;5001666;28;20587;-79
2021/11/21 05:18:49;;;;;;;18.70;11.55;;;4.90;95.40;;;;;;5002352;28;20218;-79
2021/11/21 05:21:18;;;;;;;21.20;11.52;;;4.90;95.30;;;;;;5002425;28;20340;-79
2021/11/21 05:23:46;;;;;;;21.05;10.98;;;4.90;95.30;;;;;;4997992;28;20201;-79
2021/11/21 05:26:13;;;;;;;19.95;10.60;;;4.90;95.20;;;;;;4981468;28;20271;-79
2021/11/21 05:28:40;;;;;;;18.17;10.00;;;4.80;95.10;;;;;;4982847;28;20333;-80
2021/11/21 05:31:09;;;;;;;15.63;10.00;;;4.80;94.70;;;;;;4981586;28;20209;-79
2021/11/21 05:33:36;;;;;;;17.73;9.93;;;4.80;94.50;;;;;;4987021;28;20234;-81
2021/11/21 05:36:03;;;;;;;18.08;11.02;;;4.80;94.40;;;;;;5001628;28;20285;-79
2021/11/21 05:38:30;;;;;;;19.60;11.75;;;4.80;94.40;;;;;;5006371;28;20207;-79
2021/11/21 05:40:58;;;;;;;21.08;11.40;;;4.80;94.70;;;;;;5012782;28;20232;-79
2021/11/21 05:43:28;;;;;;;23.10;11.95;;;4.80;94.90;;;;;;5009506;28;20193;-79
2021/11/21 05:45:55;;;;;;;16.67;10.60;;;4.80;95.00;;;;;;4985913;28;20291;-80
2021/11/21 05:48:24;;;;;;;22.88;11.60;;;4.90;95.10;;;;;;4988313;28;20211;-78
2021/11/21 05:50:52;;;;;;;19.50;13.10;;;4.90;95.10;;;;;;5007630;28;20248;-79
2021/11/21 05:53:20;;;;;;;17.70;10.90;;;4.90;94.70;;;;;;4984077;28;20690;-79
2021/11/21 05:55:48;;;;;;;25.10;12.65;;;4.90;95.10;;;;;;4992121;28;20252;-79
2021/11/21 05:58:18;;;;;;;22.33;12.60;;;4.90;95.10;;;;;;4986017;28;20240;-79
2021/11/21 06:00:48;;;;;;;19.45;11.27;;;5.00;95.20;;;;;;4980632;28;20248;-79
2021/11/21 06:03:15;;;;;;;16.90;10.65;;;4.90;95.20;;;;;;4981648;28;20220;-80
2021/11/21 06:05:44;;;;;;;20.35;13.18;;;4.80;95.40;;;;;;4989733;28;20203;-80
2021/11/21 06:08:11;;;;;;;22.42;11.57;;;4.80;95.30;;;;;;4999889;28;20258;-79
2021/11/21 06:10:38;;;;;;;19.52;12.05;;;4.80;95.50;;;;;;4998326;28;20264;-79
2021/11/21 06:13:05;;;;;;;22.52;11.90;;;4.80;95.70;;;;;;4999081;28;20227;-80
2021/11/21 06:15:32;;;;;;;24.23;13.60;;;4.80;95.40;;;;;;5002625;28;20235;-80
2021/11/21 06:17:58;;;;;;;23.05;12.80;;;4.80;95.30;;;;;;4977964;28;20216;-79
2021/11/21 06:20:26;;;;;;;24.70;11.82;;;4.80;95.20;;;;;;4977221;28;20249;-81
2021/11/21 06:22:54;;;;;;;23.10;12.63;;;4.80;95.60;;;;;;4981341;28;20247;-80
2021/11/21 06:25:21;;;;;;;25.35;13.80;;;4.80;95.40;;;;;;4998500;28;20231;-79
2021/11/21 06:27:57;;;;;;;22.95;13.05;;;4.80;95.30;;;;;;4994851;28;20682;-80
2021/11/21 06:30:24;;;;;;;22.13;11.85;;;4.80;95.10;;;;;;4987923;28;20221;-79
2021/11/21 06:32:50;;;;;;;22.92;12.02;;;4.80;95.00;;;;;;4980941;28;20208;-79
2021/11/21 06:35:19;;;;;;;21.45;12.70;;;4.80;95.10;;;;;;4980000;28;20238;-79
2021/11/21 06:37:47;;;;;;;19.27;12.55;;;4.80;95.00;;;;;;4998502;28;20222;-80
2021/11/21 06:40:16;;;;;;;17.00;10.43;;;4.80;95.10;;;;;;5006721;28;20239;-79
2021/11/21 06:42:46;;;;;;;17.75;11.07;;;4.70;95.00;;;;;;4995042;28;20211;-80
2021/11/21 06:45:14;;;;;;;22.73;11.55;;;4.70;94.90;;;;;;4995917;28;20440;-79
2021/11/21 06:47:42;;;;;;;20.85;11.07;;;4.70;94.70;;;;;;4989545;28;20214;-81
2021/11/21 06:50:15;;;;;;;21.58;11.95;;;4.70;94.30;;;;;;4985588;28;20232;-80
2021/11/21 06:52:42;;;;;;;17.83;11.88;;;4.70;94.30;;;;;;4996792;28;20212;-79
2021/11/21 06:55:11;;;;;;;19.15;11.88;;;4.70;93.90;;;;;;5006921;28;20557;-80
2021/11/21 06:57:39;;;;;;;18.40;9.63;;;4.70;93.60;;;;;;5004493;28;20211;-80
2021/11/21 07:00:09;;;;;;;18.45;10.65;;;4.70;93.90;;;;;;5003367;28;20266;-79
2021/11/21 07:02:35;;;;;;;18.50;9.77;;;4.70;93.60;;;;;;4993933;28;20215;-79
2021/11/21 07:05:02;;;;;;;19.10;10.20;;;4.70;93.40;;;;;;4985098;28;20695;-80
2021/11/21 07:07:29;;;;;;;15.70;9.30;;;4.70;93.20;;;;;;4985119;28;20284;-80
2021/11/21 07:09:56;;;;;;;15.45;9.43;;;4.70;92.80;;;;;;4983258;28;20424;-79
2021/11/21 07:12:23;;;;;;;13.40;8.70;;;4.70;91.80;;;;;;4975630;28;20541;-81
2021/11/21 07:14:51;;;;;;;14.02;8.18;;;4.70;91.50;;;;;;4976086;28;20338;-78
2021/11/21 07:17:18;;;;;;;11.07;6.80;;;4.70;91.00;;;;;;4980171;28;20552;-77
2021/11/21 07:19:45;;;;;;;12.68;8.77;;;4.70;90.80;;;;;;4994751;28;20334;-79
2021/11/21 07:22:12;;;;;;;13.85;8.90;;;4.70;90.70;;;;;;4992132;28;20220;-80
2021/11/21 07:24:38;;;;;;;13.23;7.85;;;4.70;90.80;;;;;;4975682;28;20213;-78
2021/11/21 07:27:06;;;;;;;14.25;9.00;;;4.70;91.00;;;;;;4987021;28;20243;-80
2021/11/21 07:29:33;;;;;;;12.20;7.70;;;4.80;91.10;;;;;;4985298;28;20224;-80
2021/11/21 07:32:03;;;;;;;14.63;8.43;;;4.80;90.10;;;;;;4986836;28;20212;-79
2021/11/21 07:34:30;;;;;;;14.35;8.35;;;4.90;90.10;;;;;;5011406;28;20294;-80
2021/11/21 07:36:58;;;;;;;10.07;7.20;;;4.90;89.50;;;;;;5013620;28;20271;-78
2021/11/21 07:39:25;;;;;;;9.88;6.50;;;4.90;89.20;;;;;;5016067;28;20232;-77
2021/11/21 07:41:53;;;;;;;12.20;6.75;;;4.80;88.80;;;;;;5015753;28;20211;-78
2021/11/21 07:44:20;;;;;;;13.13;6.65;;;4.90;88.80;;;;;;4996152;28;20207;-79
2021/11/21 07:46:47;;;;;;;10.10;6.15;;;4.90;88.80;;;;;;4994507;28;20219;-80
2021/11/21 07:49:15;;;;;;;10.60;6.07;;;4.90;88.80;;;;;;4992169;28;20288;-81
2021/11/21 07:51:42;;;;;;;11.75;6.78;;;4.90;87.50;;;;;;4976932;28;20707;-78
2021/11/21 07:54:09;;;;;;;9.70;6.20;;;4.90;87.30;;;;;;4979243;28;20209;-78
2021/11/21 07:56:36;;;;;;;10.75;6.07;;;4.80;87.40;;;;;;4981073;28;20250;-79
2021/11/21 07:59:03;;;;;;;8.05;5.53;;;4.80;88.10;;;;;;5001171;28;20233;-79
2021/11/21 08:01:30;;;;;;;9.55;6.28;;;4.80;87.80;;;;;;5006687;28;20219;-79
2021/11/21 08:03:57;;;;;;;9.02;5.63;;;4.90;87.80;;;;;;5000903;28;20205;-78
2021/11/21 08:06:25;;;;;;;10.15;5.10;;;4.80;86.70;;;;;;4996603;28;20198;-81
2021/11/21 08:08:52;;;;;;;6.85;4.45;;;4.90;86.20;;;;;;5011925;28;20263;-80
2021/11/21 08:11:19;;;;;;;7.88;4.82;;;4.90;85.40;;;;;;4991270;28;20264;-78
2021/11/21 08:13:46;;;;;;;7.18;4.40;;;4.90;85.40;;;;;;4998187;28;20248;-81
2021/11/21 08:16:13;;;;;;;5.60;4.10;;;5.00;84.90;;;;;;4986589;28;20224;-77
2021/11/21 08:18:39;;;;;;;5.07;4.05;;;4.90;83.10;;;;;;4989413;28;20220;-77
2021/11/21 08:21:06;;;;;;;5.45;4.10;;;4.90;82.90;;;;;;4981430;28;20213;-78
2021/11/21 08:23:34;;;;;;;7.05;3.95;;;4.90;83.30;;;;;;4979586;28;20211;-78
2021/11/21 08:26:01;;;;;;;5.18;3.72;;;5.00;84.20;;;;;;4980847;28;20212;-78
2021/11/21 08:28:28;;;;;;;8.10;4.13;;;5.00;83.80;;;;;;4989288;28;20204;-78
2021/11/21 08:30:55;;;;;;;5.93;3.95;;;5.10;83.40;;;;;;4986434;28;20221;-78
2021/11/21 08:33:21;;;;;;;6.93;4.22;;;5.00;82.80;;;;;;4994533;28;20257;-78
2021/11/21 08:35:48;;;;;;;4.78;4.15;;;5.10;82.80;;;;;;4994283;28;20223;-77
2021/11/21 08:38:15;;;;;;;6.63;3.70;;;5.10;83.00;;;;;;4996017;28;20272;-78
2021/11/21 08:40:44;;;;;;;5.80;3.40;;;5.10;82.50;;;;;;4994664;28;20221;-77
2021/11/21 08:43:11;;;;;;;4.57;2.95;;;5.20;81.60;;;;;;4993953;28;20202;-77
2021/11/21 08:45:38;;;;;;;4.82;3.20;;;5.30;81.70;;;;;;4983626;28;20205;-78
2021/11/21 08:48:05;;;;;;;5.00;3.35;;;5.40;80.70;;;;;;4988124;28;20201;-78
2021/11/21 08:50:32;;;;;;;5.18;3.45;;;5.40;79.40;;;;;;4990988;28;20221;-78
2021/11/21 08:52:59;;;;;;;7.57;3.70;;;5.40;78.30;;;;;;4988543;28;20258;-78
2021/11/21 08:55:27;;;;;;;7.28;4.53;;;5.50;77.80;;;;;;4990806;28;20216;-78
2021/11/21 08:57:55;;;;;;;8.00;3.90;;;5.60;77.30;;;;;;4989682;28;20227;-78
2021/11/21 09:00:23;;;;;;;7.03;5.53;;;5.50;76.50;;;;;;4994161;28;20231;-79
2021/11/21 09:02:51;;;;;;;6.88;4.30;;;5.60;77.20;;;;;;4988319;28;20207;-79
2021/11/21 09:05:18;;;;;;;5.40;4.30;;;5.70;77.50;;;;;;4999506;28;20209;-77
2021/11/21 09:07:45;;;;;;;6.05;3.38;;;5.80;77.00;;;;;;4992108;28;20207;-77
2021/11/21 09:10:16;;;;;;;7.72;4.93;;;5.80;75.90;;;;;;4991909;28;20328;-79
2021/11/21 09:12:44;;;;;;;8.10;6.00;;;5.80;76.60;;;;;;4991861;28;20722;-75
2021/11/21 09:15:15;;;;;;;4.63;3.55;;;5.80;76.10;;;;;;4989787;28;20231;-75
2021/11/21 09:17:42;;;;;;;8.07;4.05;;;5.80;74.80;;;;;;4974016;28;20260;-75
2021/11/21 09:20:10;;;;;;;7.72;4.30;;;5.80;75.10;;;;;;4974474;28;20233;-75
2021/11/21 09:22:37;;;;;;;6.70;3.53;;;5.80;75.20;;;;;;4975960;28;20300;-75
2021/11/21 09:25:05;;;;;;;4.63;3.22;;;5.90;75.10;;;;;;4976508;28;20569;-77
2021/11/21 09:27:32;;;;;;;3.60;3.03;;;5.90;73.80;;;;;;4974449;28;20232;-75
2021/11/21 09:29:59;;;;;;;3.97;3.40;;;5.90;73.80;;;;;;4977281;28;20233;-75
2021/11/21 09:32:27;;;;;;;6.13;3.58;;;5.90;73.50;;;;;;4974585;28;20213;-75
2021/11/21 09:34:54;;;;;;;7.07;3.95;;;5.90;72.80;;;;;;4977519;28;20209;-76
2021/11/21 09:37:20;;;;;;;4.65;3.08;;;6.00;72.50;;;;;;4977123;28;20209;-74
2021/11/21 09:39:47;;;;;;;5.25;3.45;;;6.10;72.50;;;;;;4978054;28;20232;-77
2021/11/21 09:42:15;;;;;;;4.15;3.13;;;6.10;71.80;;;;;;4980187;28;20741;-76
2021/11/21 09:44:42;;;;;;;6.10;3.38;;;6.20;70.60;;;;;;4997622;28;20197;-75
2021/11/21 09:47:09;;;;;;;5.35;3.58;;;6.10;70.60;;;;;;4998297;28;20289;-76
2021/11/21 09:49:37;;;;;;;5.25;4.05;;;6.10;70.60;;;;;;4997801;28;20227;-76
2021/11/21 09:52:05;;;;;;;7.47;4.53;;;6.10;70.60;;;;;;4992210;28;20227;-75
2021/11/21 09:54:33;;;;;;;5.15;3.70;;;6.00;70.30;;;;;;4980251;28;20615;-76
2021/11/21 09:57:00;;;;;;;6.88;4.20;;;6.00;71.30;;;;;;4979050;28;20271;-77
2021/11/21 09:59:49;;;;;;;4.50;3.53;;;6.00;71.40;;;;;;4993467;28;20276;-75
2021/11/21 10:02:18;;;;;;;8.45;4.72;;;6.00;71.50;;;;;;4995170;28;20257;-76
2021/11/21 10:04:47;;;;;;;8.73;5.00;;;6.00;72.00;;;;;;4985322;28;20209;-76
2021/11/21 10:07:23;;;;;;;7.10;5.03;;;6.00;73.20;;;;;;4982622;28;20297;-75
2021/11/21 10:09:54;;;;;;;10.32;4.93;;;6.00;73.90;;;;;;4981742;28;20283;-75
2021/11/21 10:12:23;;;;;;;8.45;5.60;;;6.10;73.90;;;;;;4981251;28;20289;-76
2021/11/21 10:14:56;;;;;;;10.02;5.93;;;6.20;74.00;;;;;;4981983;28;20204;-76
2021/11/21 10:17:25;;;;;;;8.60;5.00;;;6.30;74.10;;;;;;4983783;28;20205;-77
2021/11/21 10:20:16;;;;;;;14.70;6.95;;;6.30;74.10;;;;;;4980162;28;20243;-76
2021/11/21 10:22:57;;;;;;;9.15;6.07;;;6.40;74.20;;;;;;4977987;28;20213;-75
2021/11/21 10:25:52;;;;;;;12.23;6.65;;;6.30;74.10;;;;;;4979013;28;20307;-76
2021/11/21 10:28:25;;;;;;;12.02;7.15;;;6.20;74.40;;;;;;4977670;28;20248;-77
2021/11/21 10:31:11;;;;;;;12.25;6.97;;;6.30;75.00;;;;;;4977239;28;20324;-77
2021/11/21 10:33:42;;;;;;;11.85;7.25;;;6.30;75.30;;;;;;4977908;28;20221;-77
2021/11/21 10:36:14;;;;;;;10.35;6.82;;;6.30;75.40;;;;;;4978494;28;20713;-77
2021/11/21 10:38:44;;;;;;;9.82;6.57;;;6.30;75.00;;;;;;4980900;28;20649;-76
2021/11/21 10:41:21;;;;;;;15.57;7.53;;;6.30;76.20;;;;;;4979852;28;20212;-77
2021/11/21 10:43:54;;;;;;;12.23;7.32;;;6.40;75.70;;;;;;4979919;28;20213;-77
2021/11/21 10:46:27;;;;;;;11.98;7.18;;;6.40;75.40;;;;;;4979057;28;20209;-79
2021/11/21 10:48:54;;;;;;;11.13;7.43;;;6.60;75.20;;;;;;4980449;28;20252;-77
2021/11/21 10:51:25;;;;;;;14.10;7.95;;;6.60;74.40;;;;;;4979020;28;20209;-78
2021/11/21 10:53:52;;;;;;;13.02;7.65;;;6.70;74.50;;;;;;4978087;28;20218;-78
2021/11/21 10:56:19;;;;;;;12.00;7.43;;;6.80;74.50;;;;;;4977804;28;20224;-77
2021/11/21 10:58:49;;;;;;;11.00;7.22;;;6.90;73.70;;;;;;4977633;28;20305;-77
2021/11/21 11:01:22;;;;;;;12.25;7.10;;;6.80;72.80;;;;;;4978548;28;20292;-76
2021/11/21 11:04:09;;;;;;;11.23;6.88;;;6.80;73.00;;;;;;4978068;28;20267;-77
2021/11/21 11:06:38;;;;;;;10.18;6.90;;;6.80;72.10;;;;;;4978453;28;20209;-77
2021/11/21 11:09:20;;;;;;;13.07;7.25;;;6.80;72.40;;;;;;4978151;28;20235;-77
2021/11/21 11:11:48;;;;;;;10.63;6.60;;;6.80;73.10;;;;;;4975603;28;20256;-75
2021/11/21 11:14:19;;;;;;;8.48;6.35;;;6.80;72.10;;;;;;4976249;28;20585;-75
2021/11/21 11:16:47;;;;;;;9.70;6.72;;;6.70;72.70;;;;;;4977662;28;20224;-76
2021/11/21 11:19:16;;;;;;;11.15;7.05;;;6.70;72.60;;;;;;4979028;28;20267;-76
2021/11/21 11:21:45;;;;;;;11.15;6.88;;;6.80;73.20;;;;;;4975332;28;20677;-75
2021/11/21 11:24:12;;;;;;;9.13;6.80;;;6.80;72.60;;;;;;4975263;28;20721;-78
2021/11/21 11:26:39;;;;;;;9.73;6.57;;;6.90;71.80;;;;;;4975554;28;20209;-76
2021/11/21 11:29:15;;;;;;;11.35;7.38;;;6.90;71.00;;;;;;4974681;28;20244;-75
2021/11/21 11:31:42;;;;;;;11.90;7.68;;;6.90;71.20;;;;;;4975263;28;20216;-77
2021/11/21 11:34:33;;;;;;;11.63;7.07;;;6.80;71.60;;;;;;4975864;28;20211;-74
2021/11/21 11:37:02;;;;;;;11.52;7.53;;;7.00;72.00;;;;;;4974959;28;20235;-75
2021/11/21 11:39:39;;;;;;;9.75;6.28;;;7.10;70.40;;;;;;4975051;28;20605;-76
2021/11/21 11:42:33;;;;;;;9.05;6.63;;;7.20;70.00;;;;;;4981587;28;20223;-77
2021/11/21 11:45:01;;;;;;;13.20;7.60;;;7.40;69.10;;;;;;4974585;28;20232;-76
2021/11/21 11:47:29;;;;;;;10.02;7.35;;;7.50;67.60;;;;;;4975229;28;20208;-76
2021/11/21 11:49:56;;;;;;;8.32;6.28;;;7.50;67.40;;;;;;4974904;28;20229;-76
2021/11/21 11:52:55;;;;;;;13.05;7.85;;;7.50;67.00;;;;;;4974829;28;20315;-75
2021/11/21 11:55:27;;;;;;;10.23;6.65;;;7.50;66.40;;;;;;4974615;28;20208;-75
2021/11/21 11:57:54;;;;;;;9.77;7.15;;;7.40;66.30;;;;;;4974764;28;20217;-76
2021/11/21 12:00:30;;;;;;;9.10;6.70;;;7.40;66.60;;;;;;4974621;28;20232;-75
2021/11/21 12:02:59;;;;;;;11.63;7.10;;;7.50;66.80;;;;;;4974911;28;20219;-75
2021/11/21 12:05:30;;;;;;;9.73;6.20;;;7.60;66.50;;;;;;4974890;28;20213;-75
2021/11/21 12:08:14;;;;;;;10.40;6.93;;;7.50;66.40;;;;;;4974220;28;20623;-77
2021/11/21 12:10:46;;;;;;;10.02;7.18;;;7.40;66.30;;;;;;4975908;28;20237;-75
2021/11/21 12:13:25;;;;;;;9.88;6.10;;;7.40;66.30;;;;;;4983247;28;20214;-76
2021/11/21 12:15:59;;;;;;;10.98;6.40;;;7.40;66.40;;;;;;4982671;28;20221;-75
2021/11/21 12:18:55;;;;;;;11.05;7.28;;;7.30;66.80;;;;;;4979854;28;20243;-75
2021/11/21 12:21:40;;;;;;;9.60;6.35;;;7.20;66.20;;;;;;4980477;28;20213;-76
2021/11/21 12:24:21;;;;;;;8.93;6.00;;;7.20;67.60;;;;;;4982065;28;20243;-76
2021/11/21 12:26:48;;;;;;;13.38;6.82;;;7.20;66.70;;;;;;4983996;28;20606;-75
2021/11/21 12:29:43;;;;;;;10.88;6.78;;;7.20;67.30;;;;;;4980679;28;20240;-75
2021/11/21 12:32:22;;;;;;;9.63;6.47;;;7.20;67.20;;;;;;4967434;28;20670;-76
2021/11/21 12:34:50;;;;;;;9.68;6.63;;;7.10;66.80;;;;;;4983405;28;20206;-75
2021/11/21 12:37:44;;;;;;;11.00;6.60;;;7.10;66.80;;;;;;4981800;28;20244;-75
2021/11/21 12:40:25;;;;;;;8.70;6.22;;;7.00;66.50;;;;;;4983183;28;20237;-76
2021/11/21 12:43:02;;;;;;;9.20;6.35;;;7.10;67.50;;;;;;4983986;28;20261;-76
2021/11/21 12:45:30;;;;;;;8.07;5.50;;;7.10;66.10;;;;;;4983928;28;20272;-75
2021/11/21 12:48:00;;;;;;;9.68;5.93;;;7.00;66.10;;;;;;4983780;28;20224;-75
2021/11/21 12:50:29;;;;;;;8.63;5.65;;;7.00;67.10;;;;;;4983547;28;20280;-75
2021/11/21 12:53:00;;;;;;;9.73;5.32;;;7.00;67.20;;;;;;4982696;28;20292;-75